createdAt,value
2023-05-19T00:00:53.484Z,21.6
2023-05-19T00:06:45.874Z,21.5
2023-05-19T00:12:21.714Z,21.4
2023-05-19T00:18:13.741Z,21.4
2023-05-19T00:24:06.388Z,21.4
2023-05-19T00:29:57.560Z,21.3
2023-05-19T00:35:50.064Z,21.3
2023-05-19T00:41:41.973Z,21.2
2023-05-19T00:47:18.098Z,21.2
2023-05-19T01:04:09.018Z,21.1
2023-05-19T01:10:01.254Z,21
2023-05-19T01:15:37.397Z,21
2023-05-19T01:21:29.677Z,20.9
2023-05-19T01:27:05.338Z,20.9
2023-05-19T01:38:18.023Z,20.9
2023-05-19T01:43:38.912Z,20.8
2023-05-19T01:55:08.666Z,20.8
2023-05-19T02:06:37.057Z,20.7
2023-05-19T02:12:12.536Z,20.7
2023-05-19T02:18:04.911Z,20.7
2023-05-19T02:29:32.605Z,20.6
2023-05-19T02:35:09.706Z,20.6
2023-05-19T02:40:46.211Z,20.6
2023-05-19T02:46:21.464Z,20.6
2023-05-19T02:57:20.043Z,20.5
2023-05-19T03:08:49.056Z,20.4
2023-05-19T03:20:17.051Z,20.4
2023-05-19T03:26:08.780Z,20.4
2023-05-19T03:32:01.846Z,20.4
2023-05-19T03:37:53.159Z,20.4
2023-05-19T03:43:45.254Z,20.4
2023-05-19T03:49:37.495Z,20.3
2023-05-19T04:01:05.144Z,20.3
2023-05-19T04:06:57.405Z,20.3
2023-05-19T04:12:48.360Z,20.3
2023-05-19T04:18:40.404Z,20.3
2023-05-19T04:24:32.497Z,20.2
2023-05-19T04:30:22.886Z,20.3
2023-05-19T04:41:55.152Z,20.2
2023-05-19T04:47:47.139Z,20.2
2023-05-19T04:53:40.716Z,20.2
2023-05-19T05:05:08.778Z,20.2
2023-05-19T05:11:00.397Z,20.1
2023-05-19T05:16:52.187Z,20.2
2023-05-19T05:22:43.896Z,20.1
2023-05-19T05:28:20.301Z,20.1
2023-05-19T05:33:42.615Z,20.1
2023-05-19T05:39:33.647Z,20.1
2023-05-19T05:45:12.082Z,20.1
2023-05-19T05:51:04.525Z,20.1
2023-05-19T05:56:52.142Z,20.1
2023-05-19T06:02:28.548Z,20
2023-05-19T06:08:06.132Z,19.9
2023-05-19T06:13:58.251Z,19.7
2023-05-19T06:25:12.649Z,19.6
2023-05-19T06:30:49.532Z,19.6
2023-05-19T06:36:45.425Z,19.6
2023-05-19T06:42:22.715Z,19.7
2023-05-19T06:48:01.143Z,19.8
2023-05-19T06:53:37.906Z,19.8
2023-05-19T06:59:22.928Z,19.8
2023-05-19T07:05:15.624Z,19.8
2023-05-19T07:10:56.430Z,19.8
2023-05-19T07:16:17.695Z,19.8
2023-05-19T07:21:38.157Z,19.8
2023-05-19T07:26:58.817Z,19.8
2023-05-19T07:32:38.466Z,19.8
2023-05-19T07:38:15.198Z,19.8
2023-05-19T07:48:58.899Z,19.8
2023-05-19T07:54:21.929Z,19.8
2023-05-19T07:59:42.947Z,19.8
2023-05-19T08:05:21.118Z,19.8
2023-05-19T08:10:55.589Z,19.8
2023-05-19T08:16:32.652Z,19.8
2023-05-19T08:22:09.708Z,19.8
2023-05-19T08:27:44.610Z,19.8
2023-05-19T08:33:20.634Z,19.8
2023-05-19T08:38:41.954Z,19.8
2023-05-19T08:49:41.707Z,19.8
2023-05-19T08:55:32.715Z,19.8
2023-05-19T09:01:11.266Z,19.8
2023-05-19T09:07:06.316Z,19.8
2023-05-19T09:12:43.042Z,19.8
2023-05-19T09:18:22.470Z,19.8
2023-05-19T09:23:59.027Z,19.8
2023-05-19T09:29:36.034Z,19.8
2023-05-19T09:35:12.291Z,19.7
2023-05-19T09:40:48.389Z,19.7
2023-05-19T09:46:41.152Z,19.7
2023-05-19T09:57:41.533Z,19.7
2023-05-19T10:03:35.053Z,19.7
2023-05-19T10:09:12.446Z,19.7
2023-05-19T10:14:48.036Z,19.7
2023-05-19T10:20:26.502Z,19.7
2023-05-19T10:26:18.247Z,19.7
2023-05-19T10:32:11.810Z,19.7
2023-05-19T10:37:49.057Z,19.7
2023-05-19T10:43:26.491Z,19.7
2023-05-19T10:49:18.114Z,19.7
2023-05-19T10:55:10.726Z,19.7
2023-05-19T11:00:49.251Z,19.7
2023-05-19T11:06:47.527Z,19.7
2023-05-19T11:12:52.865Z,19.7
2023-05-19T11:18:45.427Z,19.7
2023-05-19T11:24:40.515Z,19.7
2023-05-19T11:30:33.709Z,19.7
2023-05-19T11:36:26.652Z,19.7
2023-05-19T11:42:18.867Z,19.7
2023-05-19T11:48:30.172Z,19.8
2023-05-19T11:54:24.474Z,19.7
2023-05-19T12:00:30.811Z,19.7
2023-05-19T12:06:30.400Z,19.7
2023-05-19T12:12:23.496Z,19.7
2023-05-19T12:18:16.895Z,19.7
2023-05-19T12:24:02.219Z,19.7
2023-05-19T12:29:53.480Z,19.7
2023-05-19T12:35:47.259Z,19.7
2023-05-19T12:41:39.915Z,19.7
2023-05-19T12:47:31.719Z,19.6
2023-05-19T12:53:26.786Z,19.6
2023-05-19T12:59:27.150Z,19.6
2023-05-19T13:05:30.040Z,19.6
2023-05-19T13:11:22.714Z,19.6
2023-05-19T13:17:15.267Z,19.6
2023-05-19T13:23:21.112Z,19.6
2023-05-19T13:28:42.522Z,19.6
2023-05-19T13:34:19.874Z,19.7
2023-05-19T13:40:12.153Z,19.7
2023-05-19T13:46:04.014Z,19.7
2023-05-19T13:52:07.574Z,19.7
2023-05-19T13:58:00.701Z,19.7
2023-05-19T14:03:51.671Z,19.7
2023-05-19T14:09:29.837Z,19.7
2023-05-19T14:15:49.792Z,19.8
2023-05-19T14:21:44.308Z,19.7
2023-05-19T14:27:37.400Z,19.8
2023-05-19T14:33:18.068Z,19.8
2023-05-19T14:39:11.010Z,19.8
2023-05-19T14:44:48.260Z,19.8
2023-05-19T14:50:27.885Z,19.8
2023-05-19T14:56:06.415Z,19.9
2023-05-19T15:01:54.244Z,19.9
2023-05-19T15:07:37.244Z,19.9
2023-05-19T15:13:29.204Z,20
2023-05-19T15:19:40.331Z,20.1
2023-05-19T15:25:31.673Z,20.1
2023-05-19T15:31:07.870Z,20.2
2023-05-19T15:36:44.851Z,20.2
2023-05-19T15:42:35.802Z,20.2
2023-05-19T15:48:28.071Z,20.2
2023-05-19T15:54:19.976Z,20.2
2023-05-19T15:59:55.773Z,20.1
2023-05-19T16:05:34.849Z,20.1
2023-05-19T16:11:27.122Z,20.1
2023-05-19T16:17:18.899Z,20
2023-05-19T16:22:56.550Z,20
2023-05-19T16:28:32.732Z,20
2023-05-19T16:34:09.057Z,20
2023-05-19T16:39:46.050Z,20
2023-05-19T16:45:23.632Z,20
2023-05-19T16:51:01.228Z,20
2023-05-19T16:56:53.183Z,20
2023-05-19T17:02:30.876Z,20
2023-05-19T17:07:39.381Z,20
2023-05-19T17:13:16.569Z,19.9
2023-05-19T17:18:53.383Z,19.9
2023-05-19T17:24:29.797Z,20
2023-05-19T17:30:21.008Z,19.9
2023-05-19T17:36:01.110Z,19.9
2023-05-19T17:41:37.125Z,19.9
2023-05-19T17:47:27.806Z,19.9
2023-05-19T17:57:54.138Z,19.9
2023-05-19T18:03:30.909Z,19.9
2023-05-19T18:09:08.257Z,19.9
2023-05-19T18:14:47.124Z,19.9
2023-05-19T18:20:23.948Z,19.9
2023-05-19T18:26:00.249Z,19.9
2023-05-19T18:31:36.189Z,19.9
2023-05-19T18:36:56.770Z,19.9
2023-05-19T18:42:17.578Z,19.9
2023-05-19T18:47:22.748Z,19.9
2023-05-19T18:52:27.807Z,19.9
2023-05-19T19:02:39.635Z,19.9
2023-05-19T19:07:44.513Z,19.9
2023-05-19T19:13:23.035Z,19.9
2023-05-19T19:18:59.211Z,19.9
2023-05-19T19:24:34.796Z,19.9
2023-05-19T19:30:11.684Z,19.9
2023-05-19T19:35:49.993Z,19.9
2023-05-19T19:41:25.983Z,19.9
2023-05-19T19:47:03.226Z,19.9
2023-05-19T19:52:54.385Z,19.9
2023-05-19T19:58:14.511Z,19.9
2023-05-19T20:04:26.104Z,19.8
2023-05-19T20:15:23.356Z,19.9
2023-05-19T20:21:02.420Z,19.9
2023-05-19T20:26:58.919Z,19.8
2023-05-19T20:32:37.014Z,19.8
2023-05-19T20:38:00.046Z,19.8
2023-05-19T20:43:35.489Z,19.8
2023-05-19T20:49:11.949Z,19.8
2023-05-19T20:54:48.471Z,19.8
2023-05-19T21:00:24.092Z,19.9
2023-05-19T21:06:16.392Z,19.8
2023-05-19T21:11:53.203Z,19.8
2023-05-19T21:17:28.967Z,19.8
2023-05-19T21:23:05.025Z,19.8
2023-05-19T21:28:57.068Z,19.8
2023-05-19T21:34:48.098Z,19.8
2023-05-19T21:40:35.207Z,19.8
2023-05-19T21:46:29.556Z,19.8
2023-05-19T21:52:05.845Z,19.8
2023-05-19T21:57:56.847Z,19.8
2023-05-19T22:03:49.490Z,19.8
2023-05-19T22:09:41.087Z,19.8
2023-05-19T22:15:31.272Z,19.8
2023-05-19T22:21:08.569Z,19.8
2023-05-19T22:27:12.600Z,19.8
2023-05-19T22:33:06.794Z,19.8
2023-05-19T22:39:00.097Z,19.8
2023-05-19T22:44:51.897Z,19.8
2023-05-19T22:50:46.355Z,19.8
2023-05-19T22:56:39.112Z,19.8
2023-05-19T23:02:30.062Z,19.8
2023-05-19T23:08:20.611Z,19.8
2023-05-19T23:14:12.980Z,19.8
2023-05-19T23:20:05.147Z,19.8
2023-05-19T23:25:57.146Z,19.8
2023-05-19T23:31:51.491Z,19.8
2023-05-19T23:37:42.543Z,19.8
2023-05-19T23:43:33.400Z,19.8
2023-05-19T23:49:25.372Z,19.8
2023-05-19T23:55:17.176Z,19.8
